createdAt,value
2022-08-21T00:00:21.952Z,76.95
2022-08-21T00:03:10.332Z,77.23
2022-08-21T00:05:51.017Z,77.24
2022-08-21T00:08:22.142Z,77.41
2022-08-21T00:10:53.864Z,77.56
2022-08-21T00:13:26.230Z,77.79
2022-08-21T00:15:55.809Z,77.93
2022-08-21T00:18:26.500Z,77.87
2022-08-21T00:21:01.126Z,77.86
2022-08-21T00:23:30.435Z,77.88
2022-08-21T00:26:03.308Z,77.75
2022-08-21T00:28:35.821Z,77.83
2022-08-21T00:31:05.130Z,78.08
2022-08-21T00:33:34.961Z,78.17
2022-08-21T00:36:05.788Z,78.17
2022-08-21T00:38:35.380Z,78.30
2022-08-21T00:41:27.587Z,78.52
2022-08-21T00:43:58.726Z,78.51
2022-08-21T00:46:28.667Z,78.77
2022-08-21T00:48:59.065Z,78.56
2022-08-21T00:51:47.365Z,78.58
2022-08-21T00:54:20.215Z,78.68
2022-08-21T00:56:57.111Z,78.81
2022-08-21T00:59:36.479Z,78.82
2022-08-21T01:02:08.599Z,79.00
2022-08-21T01:04:38.071Z,78.96
2022-08-21T01:07:07.498Z,78.81
2022-08-21T01:09:38.647Z,78.91
2022-08-21T01:12:11.600Z,79.22
2022-08-21T01:14:43.961Z,79.14
2022-08-21T01:17:17.009Z,79.22
2022-08-21T01:19:46.193Z,79.40
2022-08-21T01:22:15.396Z,79.48
2022-08-21T01:24:44.722Z,79.49
2022-08-21T01:27:13.958Z,79.52
2022-08-21T01:30:02.669Z,79.44
2022-08-21T01:32:35.834Z,79.49
2022-08-21T01:35:08.685Z,79.58
2022-08-21T01:37:38.149Z,79.56
2022-08-21T01:40:10.426Z,79.65
2022-08-21T01:42:41.003Z,79.62
2022-08-21T01:45:11.907Z,79.71
2022-08-21T01:47:48.337Z,79.87
2022-08-21T01:50:21.787Z,79.80
2022-08-21T01:52:53.291Z,79.75
2022-08-21T01:55:22.732Z,79.73
2022-08-21T01:57:52.167Z,79.98
2022-08-21T02:00:26.296Z,80.24
2022-08-21T02:02:55.402Z,80.38
2022-08-21T02:05:27.430Z,80.33
2022-08-21T02:07:56.714Z,80.28
2022-08-21T02:10:30.854Z,80.28
2022-08-21T02:13:01.680Z,80.50
2022-08-21T02:15:32.518Z,80.62
2022-08-21T02:18:03.288Z,80.47
2022-08-21T02:20:43.984Z,80.48
2022-08-21T02:23:14.733Z,80.33
2022-08-21T02:25:44.186Z,80.68
2022-08-21T02:28:16.399Z,80.62
2022-08-21T02:30:55.234Z,80.44
2022-08-21T02:37:15.919Z,80.55
2022-08-21T02:39:45.271Z,80.65
2022-08-21T02:42:14.327Z,80.65
2022-08-21T02:44:43.462Z,80.49
2022-08-21T02:47:12.717Z,80.60
2022-08-21T02:49:45.723Z,80.82
2022-08-21T02:52:15.566Z,80.71
2022-08-21T02:54:44.714Z,81.04
2022-08-21T02:57:13.748Z,81.60
2022-08-21T02:59:42.922Z,81.84
2022-08-21T03:02:15.535Z,81.81
2022-08-21T03:04:46.685Z,82.12
2022-08-21T03:07:16.489Z,82.45
2022-08-21T03:09:55.815Z,82.81
2022-08-21T03:12:27.876Z,83.10
2022-08-21T03:14:59.420Z,83.15
2022-08-21T03:17:30.072Z,83.33
2022-08-21T03:20:02.865Z,83.46
2022-08-21T03:22:33.364Z,83.52
2022-08-21T03:25:06.251Z,83.61
2022-08-21T03:27:36.489Z,83.98
2022-08-21T03:30:12.842Z,84.16
2022-08-21T03:32:44.817Z,84.30
2022-08-21T03:35:15.910Z,84.27
2022-08-21T03:37:46.346Z,84.30
2022-08-21T03:40:20.029Z,84.60
2022-08-21T03:42:49.883Z,84.66
2022-08-21T03:45:20.541Z,84.59
2022-08-21T03:48:04.262Z,84.45
2022-08-21T03:50:42.237Z,84.49
2022-08-21T03:53:16.937Z,84.58
2022-08-21T03:55:52.122Z,84.61
2022-08-21T03:58:30.457Z,84.64
2022-08-21T04:01:01.885Z,84.76
2022-08-21T04:03:31.837Z,84.91
2022-08-21T04:06:01.112Z,84.92
2022-08-21T04:08:31.406Z,84.80
2022-08-21T04:11:00.734Z,84.89
2022-08-21T04:13:30.084Z,84.90
2022-08-21T04:15:59.712Z,85.02
2022-08-21T04:18:31.662Z,85.04
2022-08-21T04:21:04.520Z,84.99
2022-08-21T04:23:34.495Z,84.98
2022-08-21T04:26:04.312Z,85.12
2022-08-21T04:28:33.589Z,85.07
2022-08-21T04:31:03.306Z,85.10
2022-08-21T04:33:32.635Z,85.30
2022-08-21T04:36:03.925Z,85.60
2022-08-21T04:38:37.600Z,85.79
2022-08-21T04:41:10.699Z,85.71
2022-08-21T04:43:41.083Z,85.83
2022-08-21T04:46:13.621Z,85.89
2022-08-21T04:48:43.498Z,86.11
2022-08-21T04:51:24.884Z,86.16
2022-08-21T04:54:16.868Z,86.16
2022-08-21T04:56:55.925Z,86.49
2022-08-21T04:59:32.758Z,87.47
2022-08-21T05:02:03.754Z,88.05
2022-08-21T05:04:38.062Z,88.48
2022-08-21T05:07:14.245Z,88.66
2022-08-21T05:09:43.894Z,89.00
2022-08-21T05:12:17.821Z,89.07
2022-08-21T05:14:48.487Z,89.30
2022-08-21T05:17:25.232Z,89.65
2022-08-21T05:20:06.875Z,89.66
2022-08-21T05:22:41.135Z,89.81
2022-08-21T05:25:14.715Z,89.98
2022-08-21T05:27:52.154Z,90.11
2022-08-21T05:30:22.275Z,90.26
2022-08-21T05:33:16.393Z,90.25
2022-08-21T05:36:11.757Z,90.24
2022-08-21T05:38:49.756Z,90.42
2022-08-21T05:41:24.338Z,90.53
2022-08-21T05:44:00.897Z,90.61
2022-08-21T05:46:38.608Z,90.78
2022-08-21T05:49:14.086Z,90.90
2022-08-21T05:51:43.780Z,90.69
2022-08-21T05:54:15.975Z,90.67
2022-08-21T05:56:50.490Z,90.67
2022-08-21T05:59:29.010Z,90.72
2022-08-21T06:02:09.493Z,90.52
2022-08-21T06:04:41.420Z,90.44
2022-08-21T06:07:10.775Z,90.36
2022-08-21T06:09:40.188Z,90.21
2022-08-21T06:12:15.771Z,90.49
2022-08-21T06:14:47.382Z,90.63
2022-08-21T06:17:17.042Z,90.58
2022-08-21T06:19:46.259Z,90.47
2022-08-21T06:22:15.550Z,90.45
2022-08-21T06:24:44.940Z,90.20
2022-08-21T06:27:29.312Z,90.41
2022-08-21T06:30:08.583Z,90.51
2022-08-21T06:32:40.476Z,90.61
2022-08-21T06:35:26.982Z,90.55
2022-08-21T06:38:12.309Z,90.64
2022-08-21T06:41:17.685Z,90.86
2022-08-21T06:43:53.829Z,90.84
2022-08-21T06:46:32.260Z,91.02
2022-08-21T06:49:06.184Z,91.06
2022-08-21T06:51:37.264Z,90.79
2022-08-21T06:54:06.724Z,90.67
2022-08-21T06:56:41.816Z,90.54
2022-08-21T06:59:13.682Z,90.47
2022-08-21T07:01:45.984Z,90.66
2022-08-21T07:04:15.442Z,90.62
2022-08-21T07:06:47.768Z,90.60
2022-08-21T07:09:24.384Z,90.62
2022-08-21T07:11:58.917Z,90.51
2022-08-21T07:14:28.529Z,90.44
2022-08-21T07:17:04.067Z,90.45
2022-08-21T07:19:47.870Z,90.79
2022-08-21T07:22:25.973Z,90.86
2022-08-21T07:25:02.852Z,90.76
2022-08-21T07:27:38.796Z,90.79
2022-08-21T07:30:20.993Z,90.84
2022-08-21T07:33:17.321Z,90.94
2022-08-21T07:36:12.713Z,90.90
2022-08-21T07:38:59.469Z,90.90
2022-08-21T07:41:34.561Z,90.99
2022-08-21T07:44:12.645Z,90.90
2022-08-21T07:46:56.965Z,90.73
2022-08-21T07:49:39.813Z,90.90
2022-08-21T07:52:23.481Z,90.65
2022-08-21T07:55:31.392Z,90.85
2022-08-21T07:58:06.836Z,90.78
2022-08-21T08:00:36.790Z,90.79
2022-08-21T08:03:10.509Z,90.72
2022-08-21T08:05:47.495Z,90.46
2022-08-21T08:08:19.879Z,90.44
2022-08-21T08:10:50.715Z,90.32
2022-08-21T08:13:20.381Z,90.29
2022-08-21T08:15:50.646Z,90.08
2022-08-21T08:18:22.253Z,90.14
2022-08-21T08:20:53.200Z,90.09
2022-08-21T08:23:29.678Z,89.98
2022-08-21T08:26:08.125Z,89.93
2022-08-21T08:28:39.766Z,89.94
2022-08-21T08:31:15.168Z,89.88
2022-08-21T08:33:45.238Z,89.69
2022-08-21T08:36:19.763Z,89.66
2022-08-21T08:38:51.209Z,89.73
2022-08-21T08:41:33.190Z,89.60
2022-08-21T08:44:13.697Z,89.33
2022-08-21T08:46:53.853Z,89.04
2022-08-21T08:49:56.118Z,88.79
2022-08-21T08:52:37.741Z,88.68
2022-08-21T08:55:28.099Z,88.69
2022-08-21T08:57:58.700Z,88.58
2022-08-21T09:00:32.294Z,88.49
2022-08-21T09:03:04.957Z,88.38
2022-08-21T09:05:50.639Z,88.34
2022-08-21T09:08:50.426Z,88.32
2022-08-21T09:11:52.021Z,88.15
2022-08-21T09:15:03.442Z,88.07
2022-08-21T09:18:24.276Z,88.08
2022-08-21T09:21:53.962Z,88.59
2022-08-21T09:24:54.936Z,88.23
2022-08-21T09:27:46.988Z,87.79
2022-08-21T09:30:36.394Z,87.53
2022-08-21T09:33:08.675Z,87.57
2022-08-21T09:35:55.679Z,87.66
2022-08-21T09:38:39.780Z,87.46
2022-08-21T09:41:11.750Z,87.49
2022-08-21T09:43:44.790Z,87.49
2022-08-21T09:46:34.520Z,87.33
2022-08-21T09:49:06.931Z,87.28
2022-08-21T09:51:56.363Z,87.19
2022-08-21T09:54:38.328Z,86.94
2022-08-21T09:57:32.116Z,86.56
2022-08-21T10:00:26.352Z,86.48
2022-08-21T10:03:08.324Z,86.29
2022-08-21T10:05:42.743Z,86.25
2022-08-21T10:08:22.012Z,86.28
2022-08-21T10:10:59.398Z,86.01
2022-08-21T10:14:06.761Z,85.97
2022-08-21T10:17:09.042Z,86.02
2022-08-21T10:20:10.833Z,86.22
2022-08-21T10:23:32.019Z,86.34
2022-08-21T10:26:40.285Z,86.21
2022-08-21T10:29:31.658Z,86.06
2022-08-21T10:45:16.520Z,85.13
2022-08-21T10:47:58.037Z,84.54
2022-08-21T10:50:49.777Z,84.27
2022-08-21T10:54:01.088Z,83.96
2022-08-21T10:56:34.787Z,84.06
2022-08-21T10:59:46.974Z,84.19
2022-08-21T11:03:11.327Z,84.16
2022-08-21T11:06:28.669Z,84.27
2022-08-21T11:09:20.873Z,84.07
2022-08-21T11:12:29.542Z,84.11
2022-08-21T11:16:00.895Z,84.13
2022-08-21T11:18:52.765Z,84.03
2022-08-21T11:21:41.702Z,84.05
2022-08-21T11:24:40.749Z,83.92
2022-08-21T11:27:30.141Z,84.01
2022-08-21T11:30:24.246Z,83.79
2022-08-21T11:33:25.252Z,83.49
2022-08-21T11:36:07.996Z,83.45
2022-08-21T11:38:57.841Z,83.53
2022-08-21T11:41:47.669Z,83.59
2022-08-21T11:45:21.388Z,83.30
2022-08-21T11:49:09.584Z,83.49
2022-08-21T11:52:44.895Z,83.39
2022-08-21T11:56:13.897Z,83.26
2022-08-21T11:59:10.645Z,83.17
2022-08-21T12:01:53.866Z,83.14
2022-08-21T12:04:44.063Z,82.89
2022-08-21T12:07:41.339Z,82.67
2022-08-21T12:10:44.379Z,82.76
2022-08-21T12:13:40.331Z,82.46
2022-08-21T12:16:50.921Z,82.36
2022-08-21T12:19:43.043Z,82.14
2022-08-21T12:22:57.325Z,82.24
2022-08-21T12:25:47.855Z,82.19
2022-08-21T12:28:47.464Z,82.25
2022-08-21T12:31:31.867Z,81.76
2022-08-21T12:34:06.978Z,81.68
2022-08-21T12:37:00.462Z,81.75
2022-08-21T12:39:39.886Z,81.71
2022-08-21T12:42:26.057Z,81.58
2022-08-21T12:45:13.941Z,81.68
2022-08-21T12:48:03.569Z,81.73
2022-08-21T12:50:51.603Z,81.74
2022-08-21T12:53:34.851Z,81.63
2022-08-21T12:56:14.904Z,81.58
2022-08-21T12:58:55.115Z,81.69
2022-08-21T13:01:57.468Z,81.30
2022-08-21T13:04:44.473Z,81.31
2022-08-21T13:07:39.709Z,81.70
2022-08-21T13:10:32.857Z,81.53
2022-08-21T13:13:25.518Z,81.36
2022-08-21T13:16:07.268Z,81.09
2022-08-21T13:18:55.459Z,81.17
2022-08-21T13:21:35.958Z,81.12
2022-08-21T13:24:41.731Z,81.25
2022-08-21T13:33:07.684Z,80.94
2022-08-21T13:36:23.905Z,81.31
2022-08-21T13:43:33.041Z,81.01
2022-08-21T13:46:19.420Z,81.04
2022-08-21T13:49:14.948Z,80.93
2022-08-21T13:52:11.352Z,80.75
2022-08-21T13:55:00.865Z,80.64
2022-08-21T13:57:36.845Z,80.44
2022-08-21T14:00:31.546Z,80.06
2022-08-21T14:03:11.448Z,79.88
2022-08-21T14:05:47.773Z,79.86
2022-08-21T14:08:40.383Z,79.85
2022-08-21T14:11:36.296Z,80.31
2022-08-21T14:14:34.248Z,79.96
2022-08-21T14:17:39.919Z,79.68
2022-08-21T14:20:34.826Z,79.33
2022-08-21T14:23:27.673Z,79.39
2022-08-21T14:26:04.574Z,79.24
2022-08-21T14:28:41.468Z,79.21
2022-08-21T14:31:23.354Z,79.12
2022-08-21T14:33:56.634Z,79.02
2022-08-21T14:36:29.114Z,79.04
2022-08-21T14:38:58.561Z,78.82
2022-08-21T14:41:31.711Z,78.81
2022-08-21T14:44:09.647Z,78.69
2022-08-21T14:46:45.855Z,78.47
2022-08-21T14:49:28.952Z,78.58
2022-08-21T14:51:59.349Z,78.27
2022-08-21T14:54:32.447Z,78.32
2022-08-21T14:57:13.429Z,78.28
2022-08-21T14:59:42.641Z,78.23
2022-08-21T15:02:12.826Z,78.20
2022-08-21T15:04:43.698Z,78.23
2022-08-21T15:07:16.028Z,78.12
2022-08-21T15:09:45.317Z,78.01
2022-08-21T15:12:17.866Z,78.06
2022-08-21T15:14:47.514Z,77.93
2022-08-21T15:17:19.642Z,77.78
2022-08-21T15:19:49.126Z,77.75
2022-08-21T15:22:27.540Z,77.94
2022-08-21T15:25:10.977Z,77.53
2022-08-21T15:27:43.138Z,77.60
2022-08-21T15:30:13.260Z,77.44
2022-08-21T15:32:43.233Z,77.46
2022-08-21T15:35:21.179Z,77.30
2022-08-21T15:37:52.985Z,77.32
2022-08-21T15:40:24.192Z,77.33
2022-08-21T15:43:01.216Z,77.22
2022-08-21T15:45:31.865Z,77.48
2022-08-21T15:48:03.170Z,77.50
2022-08-21T15:50:33.378Z,77.60
2022-08-21T15:53:02.717Z,77.71
2022-08-21T15:55:45.739Z,77.73
2022-08-21T15:58:24.816Z,77.75
2022-08-21T16:00:54.599Z,77.75
2022-08-21T16:03:24.920Z,77.55
2022-08-21T16:05:56.849Z,77.54
2022-08-21T16:08:26.284Z,77.47
2022-08-21T16:11:04.337Z,77.58
2022-08-21T16:13:46.035Z,77.81
2022-08-21T16:16:25.261Z,77.77
2022-08-21T16:19:00.943Z,77.83
2022-08-21T16:21:44.644Z,78.00
2022-08-21T16:24:24.751Z,78.11
2022-08-21T16:27:08.107Z,78.00
2022-08-21T16:29:39.593Z,77.85
2022-08-21T16:32:30.593Z,77.85
2022-08-21T16:35:53.110Z,77.98
2022-08-21T16:39:01.116Z,78.18
2022-08-21T16:42:11.824Z,78.39
2022-08-21T16:45:33.386Z,78.58
2022-08-21T16:48:18.428Z,78.48
2022-08-21T16:50:54.882Z,78.35
2022-08-21T16:53:31.494Z,78.36
2022-08-21T16:56:33.784Z,78.16
2022-08-21T16:59:44.633Z,78.38
2022-08-21T17:03:11.315Z,78.62
2022-08-21T17:06:05.373Z,78.36
2022-08-21T17:08:54.593Z,78.49
2022-08-21T17:11:50.728Z,78.46
2022-08-21T17:14:30.961Z,78.44
2022-08-21T17:17:14.447Z,78.73
2022-08-21T17:19:59.736Z,78.71
2022-08-21T17:22:34.434Z,78.67
2022-08-21T17:25:14.268Z,78.89
2022-08-21T17:28:20.317Z,78.88
2022-08-21T17:31:10.368Z,78.78
2022-08-21T17:33:56.499Z,78.94
2022-08-21T17:36:40.665Z,78.97
2022-08-21T17:39:22.102Z,79.01
2022-08-21T17:42:10.646Z,78.88
2022-08-21T17:44:46.401Z,78.98
2022-08-21T17:47:38.809Z,78.98
2022-08-21T17:50:22.450Z,79.21
2022-08-21T17:52:53.841Z,79.20
2022-08-21T17:55:25.117Z,79.16
2022-08-21T17:57:59.168Z,79.11
2022-08-21T18:00:39.511Z,79.13
2022-08-21T18:03:22.860Z,79.16
2022-08-21T18:05:54.616Z,79.19
2022-08-21T18:08:24.813Z,79.14
2022-08-21T18:11:04.342Z,79.22
2022-08-21T18:13:43.103Z,78.82
2022-08-21T18:16:19.732Z,79.07
2022-08-21T18:19:01.816Z,79.36
2022-08-21T18:22:04.286Z,79.43
2022-08-21T18:24:37.299Z,79.45
2022-08-21T18:27:19.082Z,79.31
2022-08-21T18:29:59.326Z,79.23
2022-08-21T18:32:42.391Z,79.42
2022-08-21T18:35:17.825Z,79.29
2022-08-21T18:37:50.493Z,79.30
2022-08-21T18:40:25.197Z,79.40
2022-08-21T18:42:57.673Z,79.51
2022-08-21T18:45:38.550Z,79.35
2022-08-21T18:48:16.841Z,79.03
2022-08-21T18:50:52.487Z,79.00
2022-08-21T18:53:36.340Z,78.97
2022-08-21T18:56:42.423Z,79.10
2022-08-21T18:59:21.582Z,79.08
2022-08-21T19:02:02.230Z,78.96
2022-08-21T19:04:43.610Z,78.87
2022-08-21T19:07:15.090Z,79.03
2022-08-21T19:12:44.032Z,78.94
2022-08-21T19:15:19.167Z,78.99
2022-08-21T19:17:56.831Z,79.12
2022-08-21T19:20:38.066Z,78.94
2022-08-21T19:23:11.699Z,78.88
2022-08-21T19:25:51.846Z,78.98
2022-08-21T19:28:49.264Z,79.11
2022-08-21T19:31:27.453Z,79.00
2022-08-21T19:34:08.743Z,79.12
2022-08-21T19:36:42.357Z,79.08
2022-08-21T19:39:16.126Z,79.13
2022-08-21T19:41:51.741Z,79.12
2022-08-21T19:44:31.886Z,79.07
2022-08-21T19:47:05.543Z,78.96
2022-08-21T19:49:38.710Z,79.18
2022-08-21T19:52:19.775Z,79.34
2022-08-21T19:54:57.708Z,79.27
2022-08-21T19:57:32.071Z,79.39
2022-08-21T20:00:07.127Z,79.31
2022-08-21T20:02:40.974Z,79.32
2022-08-21T20:05:20.382Z,79.37
2022-08-21T20:07:52.154Z,79.31
2022-08-21T20:10:23.274Z,79.36
2022-08-21T20:12:55.066Z,79.50
2022-08-21T20:15:25.139Z,79.49
2022-08-21T20:17:54.750Z,79.40
2022-08-21T20:20:24.027Z,79.53
2022-08-21T20:22:56.546Z,79.50
2022-08-21T20:25:29.177Z,79.55
2022-08-21T20:27:58.691Z,79.57
2022-08-21T20:30:29.035Z,79.61
2022-08-21T20:32:59.224Z,79.70
2022-08-21T20:35:32.017Z,79.71
2022-08-21T20:38:06.078Z,79.82
2022-08-21T20:40:37.691Z,79.63
2022-08-21T20:43:08.592Z,79.73
2022-08-21T20:45:51.935Z,79.81
2022-08-21T20:48:32.399Z,79.68
2022-08-21T20:51:44.988Z,79.61
2022-08-21T20:55:08.872Z,79.83
2022-08-21T20:58:03.142Z,79.86
2022-08-21T21:00:41.900Z,79.86
2022-08-21T21:03:21.275Z,79.86
2022-08-21T21:06:33.751Z,79.87
2022-08-21T21:09:24.325Z,79.79
2022-08-21T21:11:59.146Z,79.63
2022-08-21T21:14:48.374Z,79.64
2022-08-21T21:18:14.163Z,79.55
2022-08-21T21:20:57.457Z,79.62
2022-08-21T21:24:07.441Z,79.86
2022-08-21T21:27:18.457Z,79.74
2022-08-21T21:29:57.153Z,79.67
2022-08-21T21:32:34.404Z,79.65
2022-08-21T21:35:32.550Z,79.54
2022-08-21T21:38:51.627Z,79.53
2022-08-21T21:41:37.805Z,79.74
2022-08-21T21:44:56.390Z,79.78
2022-08-21T21:47:52.331Z,79.63
2022-08-21T21:50:46.404Z,79.63
2022-08-21T21:54:04.712Z,79.72
2022-08-21T21:57:11.444Z,79.56
2022-08-21T22:00:12.182Z,79.71
2022-08-21T22:03:22.611Z,79.78
2022-08-21T22:06:08.536Z,80.09
2022-08-21T22:09:02.598Z,80.08
2022-08-21T22:11:58.723Z,79.88
2022-08-21T22:14:46.680Z,80.04
2022-08-21T22:17:41.084Z,80.08
2022-08-21T22:20:35.818Z,80.12
2022-08-21T22:23:16.021Z,80.22
2022-08-21T22:25:58.554Z,80.05
2022-08-21T22:28:40.458Z,80.14
2022-08-21T22:31:29.698Z,80.17
2022-08-21T22:34:18.450Z,80.16
2022-08-21T22:37:15.685Z,80.29
2022-08-21T22:40:02.221Z,80.29
2022-08-21T22:43:04.054Z,80.12
2022-08-21T22:46:13.478Z,80.17
2022-08-21T22:49:04.846Z,80.25
2022-08-21T22:51:49.902Z,80.18
2022-08-21T22:54:35.977Z,80.15
2022-08-21T22:57:35.124Z,80.18
2022-08-21T23:00:17.522Z,80.19
2022-08-21T23:02:53.399Z,80.22
2022-08-21T23:05:40.161Z,80.08
2022-08-21T23:08:40.540Z,79.91
2022-08-21T23:11:44.403Z,80.12
2022-08-21T23:14:20.184Z,80.08
2022-08-21T23:17:07.793Z,79.81
2022-08-21T23:20:13.250Z,79.74
2022-08-21T23:22:54.811Z,79.61
2022-08-21T23:25:39.651Z,79.46
2022-08-21T23:28:58.622Z,79.54
2022-08-21T23:31:58.569Z,79.62
2022-08-21T23:35:02.179Z,79.79
2022-08-21T23:38:17.951Z,79.76
2022-08-21T23:40:58.706Z,79.64
2022-08-21T23:44:12.927Z,79.53
2022-08-21T23:47:29.627Z,79.60
2022-08-21T23:50:32.743Z,79.49
2022-08-21T23:53:23.914Z,79.54
2022-08-21T23:56:51.436Z,79.58
2022-08-21T23:59:54.028Z,79.60
